hero-logo

Top 15 Knowers of LNG Cheniere Energy Inc - 2017-07-25

Rank Fund Result (K)
1 Duquesne Family Office Llc $2,605
2 Key Group Holdings Cayman Ltd $1,664
3 Cushing Asset Management Lp $1,221
4 13d Management Llc $263
5 Capstone Investment Advisors Llc $125
6 Avalon Advisors Llc $100
7 Elco Management Co Llc $66
8 Arrowpoint Asset Management Llc $58
9 Raymond James Associates $53
10 Aperio Group Llc $33
11 Level Four Advisory Services Llc $31
12 Fdx Advisors Inc $29
13 Proficio Capital Partners Llc $28
14 Amalgamated Bank $5
15 American Money Management Llc $5
Price Chart and News From Google Finance for LNG Cheniere Energy Inc
Owner Date Shares Change Price Change Result (K)
13d Management Llc 2017-03-31 45,176 $5.84 $263
Advantage Investment Management Llc 2017-03-31 -6,051 $5.84 $-35
Aldebaran Financial Inc 2017-03-31 640 $5.84 $3
Amalgamated Bank 2017-03-31 934 $5.84 $5
American Money Management Llc 2017-03-31 915 $5.84 $5
Anchor Bolt Capital Lp 2017-03-31 -966,457 $5.84 $-5,644
Aperio Group Llc 2017-03-31 5,688 $5.84 $33
Arrowpoint Asset Management Llc 2017-03-31 10,000 $5.84 $58
A R T Advisors Llc 2017-03-31 -78,667 $5.84 $-459
Avalon Advisors Llc 2017-03-31 17,224 $5.84 $100
Balentine Llc 2017-03-31 579 $5.84 $3
Beaconlight Capital Llc 2017-03-31 -124,600 $5.84 $-727
Bluefin Trading Llc 2017-03-31 -4,854 $5.84 $-28
Bp Capital Fund Advisors Llc 2017-03-31 -167,249 $5.84 $-976
Brigade Capital Management Lp 2017-03-31 0 $5.84 $0
Brinker Capital Inc 2017-03-31 207 $5.84 $1
California State Teachers Retirement System 2017-03-31 -17,700 $5.84 $-103
Capital Guardian Trust Co 2017-03-31 -3,100 $5.84 $-18
Capital Innovations Llc 2017-03-31 -2,037 $5.84 $-11
Capstone Investment Advisors Llc 2017-03-31 21,537 $5.84 $125
Carlson Capital L P 2017-03-31 0 $5.84 $0
Compagnie Lombard Odier Scma 2017-03-31 -2,695 $5.84 $-15
Cushing Asset Management Lp 2017-03-31 209,112 $5.84 $1,221
D A Davidson Co 2017-03-31 -606 $5.84 $-3
Duquesne Family Office Llc 2017-03-31 446,145 $5.84 $2,605
Earnest Partners Llc 2017-03-31 -115 $5.84 $0
Elco Management Co Llc 2017-03-31 11,350 $5.84 $66
Electron Capital Partners Llc 2017-03-31 -372,614 $5.84 $-2,176
Envestnet Asset Management Inc 2017-03-31 622 $5.84 $3
Falcon Edge Capital Lp 2017-03-31 -1,215,000 $5.84 $-7,095
Fdx Advisors Inc 2017-03-31 5,034 $5.84 $29
Fiera Capital Corp 2017-03-31 -62,516 $5.84 $-365
Frontier Investment Mgmt Co 2017-03-31 -505 $5.84 $-2
Glg Llc 2017-03-31 -24,338 $5.84 $-142
Glg Partners Lp 2017-03-31 -37,689 $5.84 $-220
Group One Trading L P 2017-03-31 -31,789 $5.84 $-185
Guggenheim Capital Llc 2017-03-31 -10,610 $5.84 $-61
Highvista Strategies Llc 2017-03-31 -240,600 $5.84 $-1,405
Horizon Kinetics Llc 2017-03-31 -892 $5.84 $-5
Hutchin Hill Capital Lp 2017-03-31 -73,299 $5.84 $-428
Ibex Wealth Advisors 2017-03-31 -175 $5.84 $-1
Ifp Advisors Inc 2017-03-31 -357 $5.84 $-2
Iht Wealth Management Llc 2017-03-31 16 $5.84 $0
Jane Street Group Llc 2017-03-31 -79,129 $5.84 $-462
Key Group Holdings Cayman Ltd 2017-03-31 285,065 $5.84 $1,664
Kingfisher Capital Llc 2017-03-31 -685 $5.84 $-4
Ladenburg Thalmann Financial Services Inc 2017-03-31 -5,676 $5.84 $-33
Lee Financial Corp 2017-03-31 100 $5.84 $0
Level Four Advisory Services Llc 2017-03-31 5,471 $5.84 $31
Mariner Wealth Advisors Llc 2017-03-31 44 $5.84 $0
Northwestern Mutual Wealth Management Co 2017-03-31 -741 $5.84 $-4
Patriot Financial Group Insurance Agency Llc 2017-03-31 0 $5.84 $0
Peconic Partners Llc 2017-03-31 -191,290 $5.84 $-1,117
Pennant Capital Management Llc 2017-03-31 -1,318,094 $5.84 $-7,697
Pinkerton Retirement Specialists Llc 2017-03-31 -575 $5.84 $-3
Proficio Capital Partners Llc 2017-03-31 4,933 $5.84 $28
Public Employees Retirement System Of Ohio 2017-03-31 0 $5.84 $0
Raymond James Associates 2017-03-31 9,089 $5.84 $53
Squarepoint Ops Llc 2017-03-31 -36,900 $5.84 $-215
Stifel Financial Corp 2017-03-31 -1,718 $5.84 $-10
Summit Partners Public Asset Management Llc 2017-03-31 -60,000 $5.84 $-350
Tortoise Investment Management Llc 2017-03-31 0 $5.84 $0
Tph Asset Management Llc 2017-03-31 -203,588 $5.84 $-1,188
Valinor Management L P 2017-03-31 -1,896,781 $5.84 $-11,077
Verition Fund Management Llc 2017-03-31 -2,416 $5.84 $-14
Walleye Trading Llc 2017-03-31 -39,343 $5.84 $-229
Westside Investment Management Inc 2017-03-31 -100 $5.84 $0
Westwood Holdings Group Inc 2017-03-31 0 $5.84 $0
Yorkville Capital Management Llc 2017-03-31 -3,200 $5.84 $-18
Zimmer Partners Lp 2017-03-31 -39,171 $5.84 $-228